sensor_id;sensor_type;location;lat;lon;timestamp;P1;durP1;ratioP1;P2;durP2;ratioP2
8100;SDS011;4093;53.470;9.832;2023-06-04T00:02:26;3.30;;;2.80;;
8100;SDS011;4093;53.470;9.832;2023-06-04T00:04:54;3.27;;;2.70;;
8100;SDS011;4093;53.470;9.832;2023-06-04T00:07:23;5.80;;;2.63;;
8100;SDS011;4093;53.470;9.832;2023-06-04T00:09:51;4.50;;;3.37;;
8100;SDS011;4093;53.470;9.832;2023-06-04T00:12:19;4.00;;;2.80;;
8100;SDS011;4093;53.470;9.832;2023-06-04T00:14:47;3.53;;;3.20;;
8100;SDS011;4093;53.470;9.832;2023-06-04T00:17:15;4.57;;;3.00;;
8100;SDS011;4093;53.470;9.832;2023-06-04T00:19:42;3.27;;;2.80;;
8100;SDS011;4093;53.470;9.832;2023-06-04T00:22:10;5.47;;;3.10;;
8100;SDS011;4093;53.470;9.832;2023-06-04T00:24:39;3.57;;;3.27;;
8100;SDS011;4093;53.470;9.832;2023-06-04T00:27:07;4.33;;;3.27;;
8100;SDS011;4093;53.470;9.832;2023-06-04T00:29:36;5.47;;;3.40;;
8100;SDS011;4093;53.470;9.832;2023-06-04T00:32:04;3.30;;;3.00;;
8100;SDS011;4093;53.470;9.832;2023-06-04T00:34:32;3.37;;;3.07;;
8100;SDS011;4093;53.470;9.832;2023-06-04T00:37:00;5.17;;;3.30;;
8100;SDS011;4093;53.470;9.832;2023-06-04T00:39:28;3.73;;;3.00;;
8100;SDS011;4093;53.470;9.832;2023-06-04T00:41:57;4.07;;;2.97;;
8100;SDS011;4093;53.470;9.832;2023-06-04T00:44:25;3.63;;;3.33;;
8100;SDS011;4093;53.470;9.832;2023-06-04T00:46:54;4.20;;;3.10;;
8100;SDS011;4093;53.470;9.832;2023-06-04T00:49:21;3.97;;;3.10;;
8100;SDS011;4093;53.470;9.832;2023-06-04T00:51:49;4.03;;;3.23;;
8100;SDS011;4093;53.470;9.832;2023-06-04T00:54:18;3.60;;;3.07;;
8100;SDS011;4093;53.470;9.832;2023-06-04T00:56:47;3.70;;;3.13;;
8100;SDS011;4093;53.470;9.832;2023-06-04T00:59:16;3.20;;;2.90;;
8100;SDS011;4093;53.470;9.832;2023-06-04T01:01:45;4.80;;;3.07;;
8100;SDS011;4093;53.470;9.832;2023-06-04T01:04:18;3.87;;;2.90;;
8100;SDS011;4093;53.470;9.832;2023-06-04T01:06:51;4.67;;;3.27;;
8100;SDS011;4093;53.470;9.832;2023-06-04T01:09:24;4.47;;;3.17;;
8100;SDS011;4093;53.470;9.832;2023-06-04T01:11:53;3.83;;;2.83;;
8100;SDS011;4093;53.470;9.832;2023-06-04T01:14:25;4.17;;;3.10;;
8100;SDS011;4093;53.470;9.832;2023-06-04T01:16:55;3.03;;;2.77;;
8100;SDS011;4093;53.470;9.832;2023-06-04T01:19:37;3.10;;;2.80;;
8100;SDS011;4093;53.470;9.832;2023-06-04T01:22:35;3.63;;;3.13;;
8100;SDS011;4093;53.470;9.832;2023-06-04T01:25:15;4.57;;;3.37;;
8100;SDS011;4093;53.470;9.832;2023-06-04T01:27:51;5.87;;;3.07;;
8100;SDS011;4093;53.470;9.832;2023-06-04T01:30:24;4.03;;;3.30;;
8100;SDS011;4093;53.470;9.832;2023-06-04T01:32:54;3.37;;;3.07;;
8100;SDS011;4093;53.470;9.832;2023-06-04T01:35:22;3.40;;;3.10;;
8100;SDS011;4093;53.470;9.832;2023-06-04T01:37:54;5.07;;;2.60;;
8100;SDS011;4093;53.470;9.832;2023-06-04T01:40:23;3.47;;;3.17;;
8100;SDS011;4093;53.470;9.832;2023-06-04T01:42:51;3.10;;;2.87;;
8100;SDS011;4093;53.470;9.832;2023-06-04T01:45:20;3.07;;;2.77;;
8100;SDS011;4093;53.470;9.832;2023-06-04T01:47:49;3.10;;;2.77;;
8100;SDS011;4093;53.470;9.832;2023-06-04T01:50:17;3.43;;;3.03;;
8100;SDS011;4093;53.470;9.832;2023-06-04T01:52:45;5.07;;;2.90;;
8100;SDS011;4093;53.470;9.832;2023-06-04T01:55:13;5.57;;;2.93;;
8100;SDS011;4093;53.470;9.832;2023-06-04T01:57:42;4.10;;;3.27;;
8100;SDS011;4093;53.470;9.832;2023-06-04T02:00:11;2.90;;;2.70;;
8100;SDS011;4093;53.470;9.832;2023-06-04T02:02:41;3.30;;;2.70;;
8100;SDS011;4093;53.470;9.832;2023-06-04T02:05:11;2.70;;;2.50;;
8100;SDS011;4093;53.470;9.832;2023-06-04T02:07:40;3.30;;;3.00;;
8100;SDS011;4093;53.470;9.832;2023-06-04T02:10:11;4.30;;;2.90;;
8100;SDS011;4093;53.470;9.832;2023-06-04T02:12:40;3.43;;;2.73;;
8100;SDS011;4093;53.470;9.832;2023-06-04T02:15:20;4.50;;;2.90;;
8100;SDS011;4093;53.470;9.832;2023-06-04T02:17:49;4.37;;;3.00;;
8100;SDS011;4093;53.470;9.832;2023-06-04T02:20:19;4.07;;;2.73;;
8100;SDS011;4093;53.470;9.832;2023-06-04T02:22:46;3.50;;;3.17;;
8100;SDS011;4093;53.470;9.832;2023-06-04T02:25:14;4.30;;;2.97;;
8100;SDS011;4093;53.470;9.832;2023-06-04T02:27:42;3.17;;;2.83;;
8100;SDS011;4093;53.470;9.832;2023-06-04T02:30:10;3.90;;;3.17;;
8100;SDS011;4093;53.470;9.832;2023-06-04T02:32:38;6.50;;;3.37;;
8100;SDS011;4093;53.470;9.832;2023-06-04T02:35:07;3.10;;;2.80;;
8100;SDS011;4093;53.470;9.832;2023-06-04T02:37:37;4.53;;;3.23;;
8100;SDS011;4093;53.470;9.832;2023-06-04T02:40:05;4.20;;;3.00;;
8100;SDS011;4093;53.470;9.832;2023-06-04T02:42:34;8.03;;;3.50;;
8100;SDS011;4093;53.470;9.832;2023-06-04T02:45:02;5.60;;;3.50;;
8100;SDS011;4093;53.470;9.832;2023-06-04T02:47:30;3.63;;;2.87;;
8100;SDS011;4093;53.470;9.832;2023-06-04T02:49:58;4.37;;;3.27;;
8100;SDS011;4093;53.470;9.832;2023-06-04T02:52:25;6.43;;;3.43;;
8100;SDS011;4093;53.470;9.832;2023-06-04T02:54:55;4.83;;;3.23;;
8100;SDS011;4093;53.470;9.832;2023-06-04T02:57:23;4.67;;;3.40;;
8100;SDS011;4093;53.470;9.832;2023-06-04T02:59:51;5.10;;;3.23;;
8100;SDS011;4093;53.470;9.832;2023-06-04T03:02:21;4.87;;;2.63;;
8100;SDS011;4093;53.470;9.832;2023-06-04T03:04:49;4.30;;;3.10;;
8100;SDS011;4093;53.470;9.832;2023-06-04T03:07:17;4.23;;;2.90;;
8100;SDS011;4093;53.470;9.832;2023-06-04T03:09:46;4.27;;;3.30;;
8100;SDS011;4093;53.470;9.832;2023-06-04T03:12:15;3.30;;;2.90;;
8100;SDS011;4093;53.470;9.832;2023-06-04T03:14:43;3.93;;;3.00;;
8100;SDS011;4093;53.470;9.832;2023-06-04T03:17:11;4.87;;;3.20;;
8100;SDS011;4093;53.470;9.832;2023-06-04T03:19:40;3.63;;;3.23;;
8100;SDS011;4093;53.470;9.832;2023-06-04T03:22:09;7.30;;;3.30;;
8100;SDS011;4093;53.470;9.832;2023-06-04T03:24:38;4.13;;;3.77;;
8100;SDS011;4093;53.470;9.832;2023-06-04T03:27:07;6.00;;;3.47;;
8100;SDS011;4093;53.470;9.832;2023-06-04T03:29:37;3.27;;;2.97;;
8100;SDS011;4093;53.470;9.832;2023-06-04T03:32:05;4.30;;;3.30;;
8100;SDS011;4093;53.470;9.832;2023-06-04T03:34:34;4.30;;;3.30;;
8100;SDS011;4093;53.470;9.832;2023-06-04T03:37:01;5.03;;;3.23;;
8100;SDS011;4093;53.470;9.832;2023-06-04T03:39:29;4.77;;;3.30;;
8100;SDS011;4093;53.470;9.832;2023-06-04T03:41:57;5.10;;;3.37;;
8100;SDS011;4093;53.470;9.832;2023-06-04T03:44:25;4.30;;;2.93;;
8100;SDS011;4093;53.470;9.832;2023-06-04T03:46:54;4.87;;;3.07;;
8100;SDS011;4093;53.470;9.832;2023-06-04T03:49:22;8.13;;;3.17;;
8100;SDS011;4093;53.470;9.832;2023-06-04T03:51:49;3.83;;;3.10;;
8100;SDS011;4093;53.470;9.832;2023-06-04T03:54:17;3.40;;;3.10;;
8100;SDS011;4093;53.470;9.832;2023-06-04T03:56:45;3.50;;;3.10;;
8100;SDS011;4093;53.470;9.832;2023-06-04T03:59:13;5.37;;;3.43;;
8100;SDS011;4093;53.470;9.832;2023-06-04T04:01:41;3.23;;;2.93;;
8100;SDS011;4093;53.470;9.832;2023-06-04T04:04:11;4.47;;;3.30;;
8100;SDS011;4093;53.470;9.832;2023-06-04T04:06:38;3.67;;;2.97;;
8100;SDS011;4093;53.470;9.832;2023-06-04T04:09:07;4.20;;;3.20;;
8100;SDS011;4093;53.470;9.832;2023-06-04T04:11:35;3.27;;;2.97;;
8100;SDS011;4093;53.470;9.832;2023-06-04T04:14:02;3.77;;;3.07;;
8100;SDS011;4093;53.470;9.832;2023-06-04T04:16:30;6.83;;;3.70;;
8100;SDS011;4093;53.470;9.832;2023-06-04T04:18:58;4.83;;;3.20;;
8100;SDS011;4093;53.470;9.832;2023-06-04T04:21:27;5.93;;;3.50;;
8100;SDS011;4093;53.470;9.832;2023-06-04T04:23:55;4.40;;;3.13;;
8100;SDS011;4093;53.470;9.832;2023-06-04T04:26:23;3.30;;;3.00;;
8100;SDS011;4093;53.470;9.832;2023-06-04T04:28:54;3.93;;;3.37;;
8100;SDS011;4093;53.470;9.832;2023-06-04T04:31:24;4.13;;;2.90;;
8100;SDS011;4093;53.470;9.832;2023-06-04T04:33:52;5.40;;;3.17;;
8100;SDS011;4093;53.470;9.832;2023-06-04T04:36:23;5.03;;;3.00;;
8100;SDS011;4093;53.470;9.832;2023-06-04T04:38:52;4.17;;;2.90;;
8100;SDS011;4093;53.470;9.832;2023-06-04T04:41:21;3.23;;;2.87;;
8100;SDS011;4093;53.470;9.832;2023-06-04T04:43:49;3.70;;;2.97;;
8100;SDS011;4093;53.470;9.832;2023-06-04T04:46:20;3.50;;;2.63;;
8100;SDS011;4093;53.470;9.832;2023-06-04T04:48:47;3.63;;;3.10;;
8100;SDS011;4093;53.470;9.832;2023-06-04T04:51:15;3.17;;;2.73;;
8100;SDS011;4093;53.470;9.832;2023-06-04T04:53:43;3.03;;;2.70;;
8100;SDS011;4093;53.470;9.832;2023-06-04T04:56:12;3.10;;;2.80;;
8100;SDS011;4093;53.470;9.832;2023-06-04T04:58:40;4.07;;;2.57;;
8100;SDS011;4093;53.470;9.832;2023-06-04T05:01:08;3.53;;;2.80;;
8100;SDS011;4093;53.470;9.832;2023-06-04T05:03:36;5.03;;;2.90;;
8100;SDS011;4093;53.470;9.832;2023-06-04T05:06:03;2.90;;;2.60;;
8100;SDS011;4093;53.470;9.832;2023-06-04T05:08:31;5.30;;;3.40;;
8100;SDS011;4093;53.470;9.832;2023-06-04T05:10:59;2.95;;;2.42;;
8100;SDS011;4093;53.470;9.832;2023-06-04T05:13:28;3.47;;;2.70;;
8100;SDS011;4093;53.470;9.832;2023-06-04T05:15:56;3.65;;;2.90;;
8100;SDS011;4093;53.470;9.832;2023-06-04T05:18:24;5.63;;;3.20;;
8100;SDS011;4093;53.470;9.832;2023-06-04T05:20:55;3.35;;;2.63;;
8100;SDS011;4093;53.470;9.832;2023-06-04T05:23:24;4.43;;;3.28;;
8100;SDS011;4093;53.470;9.832;2023-06-04T05:25:51;3.58;;;2.78;;
8100;SDS011;4093;53.470;9.832;2023-06-04T05:28:19;6.72;;;3.50;;
8100;SDS011;4093;53.470;9.832;2023-06-04T05:30:52;3.70;;;3.10;;
8100;SDS011;4093;53.470;9.832;2023-06-04T05:33:25;5.60;;;3.40;;
8100;SDS011;4093;53.470;9.832;2023-06-04T05:35:53;6.10;;;3.17;;
8100;SDS011;4093;53.470;9.832;2023-06-04T05:38:23;6.82;;;3.63;;
8100;SDS011;4093;53.470;9.832;2023-06-04T05:40:53;6.68;;;3.72;;
8100;SDS011;4093;53.470;9.832;2023-06-04T05:43:21;4.85;;;3.20;;
8100;SDS011;4093;53.470;9.832;2023-06-04T05:45:49;5.75;;;3.33;;
8100;SDS011;4093;53.470;9.832;2023-06-04T05:48:19;6.57;;;3.38;;
8100;SDS011;4093;53.470;9.832;2023-06-04T05:50:47;6.20;;;3.90;;
8100;SDS011;4093;53.470;9.832;2023-06-04T05:53:14;6.57;;;3.35;;
8100;SDS011;4093;53.470;9.832;2023-06-04T05:55:42;7.75;;;3.53;;
8100;SDS011;4093;53.470;9.832;2023-06-04T05:58:10;9.65;;;4.15;;
8100;SDS011;4093;53.470;9.832;2023-06-04T06:00:38;7.60;;;3.40;;
8100;SDS011;4093;53.470;9.832;2023-06-04T06:03:06;5.38;;;3.50;;
8100;SDS011;4093;53.470;9.832;2023-06-04T06:05:35;7.03;;;3.30;;
8100;SDS011;4093;53.470;9.832;2023-06-04T06:08:03;7.03;;;3.60;;
8100;SDS011;4093;53.470;9.832;2023-06-04T06:10:32;6.13;;;3.33;;
8100;SDS011;4093;53.470;9.832;2023-06-04T06:13:00;4.93;;;3.22;;
8100;SDS011;4093;53.470;9.832;2023-06-04T06:15:28;6.22;;;3.35;;
8100;SDS011;4093;53.470;9.832;2023-06-04T06:17:56;6.57;;;3.63;;
8100;SDS011;4093;53.470;9.832;2023-06-04T06:20:24;5.13;;;3.08;;
8100;SDS011;4093;53.470;9.832;2023-06-04T06:22:53;7.35;;;3.15;;
8100;SDS011;4093;53.470;9.832;2023-06-04T06:25:21;3.30;;;2.97;;
8100;SDS011;4093;53.470;9.832;2023-06-04T06:27:48;3.50;;;2.67;;
8100;SDS011;4093;53.470;9.832;2023-06-04T06:30:17;9.25;;;3.25;;
8100;SDS011;4093;53.470;9.832;2023-06-04T06:32:45;5.53;;;2.88;;
8100;SDS011;4093;53.470;9.832;2023-06-04T06:35:14;7.25;;;3.33;;
8100;SDS011;4093;53.470;9.832;2023-06-04T06:37:42;7.68;;;3.20;;
8100;SDS011;4093;53.470;9.832;2023-06-04T06:40:12;6.00;;;3.58;;
8100;SDS011;4093;53.470;9.832;2023-06-04T06:42:39;6.72;;;3.05;;
8100;SDS011;4093;53.470;9.832;2023-06-04T06:45:07;7.45;;;3.30;;
8100;SDS011;4093;53.470;9.832;2023-06-04T06:47:36;6.43;;;2.85;;
8100;SDS011;4093;53.470;9.832;2023-06-04T06:50:04;7.10;;;2.92;;
8100;SDS011;4093;53.470;9.832;2023-06-04T06:52:33;7.00;;;3.60;;
8100;SDS011;4093;53.470;9.832;2023-06-04T06:55:00;5.30;;;2.70;;
8100;SDS011;4093;53.470;9.832;2023-06-04T06:57:29;3.67;;;2.83;;
8100;SDS011;4093;53.470;9.832;2023-06-04T06:59:57;5.43;;;3.20;;
8100;SDS011;4093;53.470;9.832;2023-06-04T07:02:25;4.85;;;3.00;;
8100;SDS011;4093;53.470;9.832;2023-06-04T07:04:53;5.50;;;2.80;;
8100;SDS011;4093;53.470;9.832;2023-06-04T07:07:20;7.15;;;2.45;;
8100;SDS011;4093;53.470;9.832;2023-06-04T07:09:48;6.20;;;2.92;;
8100;SDS011;4093;53.470;9.832;2023-06-04T07:12:16;6.35;;;2.60;;
8100;SDS011;4093;53.470;9.832;2023-06-04T07:14:45;5.50;;;2.63;;
8100;SDS011;4093;53.470;9.832;2023-06-04T07:17:13;4.55;;;2.80;;
8100;SDS011;4093;53.470;9.832;2023-06-04T07:19:41;5.07;;;2.63;;
8100;SDS011;4093;53.470;9.832;2023-06-04T07:22:08;3.72;;;2.35;;
8100;SDS011;4093;53.470;9.832;2023-06-04T07:24:36;5.75;;;2.65;;
8100;SDS011;4093;53.470;9.832;2023-06-04T07:27:09;5.90;;;2.65;;
8100;SDS011;4093;53.470;9.832;2023-06-04T07:29:38;3.78;;;2.33;;
8100;SDS011;4093;53.470;9.832;2023-06-04T07:32:07;3.85;;;2.47;;
8100;SDS011;4093;53.470;9.832;2023-06-04T07:34:34;5.25;;;2.25;;
8100;SDS011;4093;53.470;9.832;2023-06-04T07:37:03;3.78;;;2.50;;
8100;SDS011;4093;53.470;9.832;2023-06-04T07:39:31;4.97;;;2.58;;
8100;SDS011;4093;53.470;9.832;2023-06-04T07:41:59;5.35;;;2.63;;
8100;SDS011;4093;53.470;9.832;2023-06-04T07:44:26;7.60;;;2.78;;
8100;SDS011;4093;53.470;9.832;2023-06-04T07:46:54;5.32;;;2.40;;
8100;SDS011;4093;53.470;9.832;2023-06-04T07:49:23;3.88;;;2.50;;
8100;SDS011;4093;53.470;9.832;2023-06-04T07:51:51;4.65;;;2.40;;
8100;SDS011;4093;53.470;9.832;2023-06-04T07:54:19;4.75;;;2.47;;
8100;SDS011;4093;53.470;9.832;2023-06-04T07:56:46;6.95;;;2.72;;
8100;SDS011;4093;53.470;9.832;2023-06-04T07:59:14;3.90;;;2.35;;
8100;SDS011;4093;53.470;9.832;2023-06-04T08:01:42;3.30;;;2.45;;
8100;SDS011;4093;53.470;9.832;2023-06-04T08:04:10;4.88;;;2.50;;
8100;SDS011;4093;53.470;9.832;2023-06-04T08:06:39;4.82;;;2.28;;
8100;SDS011;4093;53.470;9.832;2023-06-04T08:09:08;4.38;;;2.38;;
8100;SDS011;4093;53.470;9.832;2023-06-04T08:11:36;3.60;;;2.30;;
8100;SDS011;4093;53.470;9.832;2023-06-04T08:14:04;4.80;;;2.50;;
8100;SDS011;4093;53.470;9.832;2023-06-04T08:16:32;4.22;;;2.60;;
8100;SDS011;4093;53.470;9.832;2023-06-04T08:19:00;4.82;;;2.60;;
8100;SDS011;4093;53.470;9.832;2023-06-04T08:21:27;5.45;;;2.30;;
8100;SDS011;4093;53.470;9.832;2023-06-04T08:23:57;7.65;;;2.22;;
8100;SDS011;4093;53.470;9.832;2023-06-04T08:26:25;6.03;;;2.65;;
8100;SDS011;4093;53.470;9.832;2023-06-04T08:28:54;6.28;;;2.40;;
8100;SDS011;4093;53.470;9.832;2023-06-04T08:31:22;4.70;;;2.25;;
8100;SDS011;4093;53.470;9.832;2023-06-04T08:33:50;4.25;;;2.40;;
8100;SDS011;4093;53.470;9.832;2023-06-04T08:36:17;3.40;;;2.17;;
8100;SDS011;4093;53.470;9.832;2023-06-04T08:38:45;3.08;;;2.10;;
8100;SDS011;4093;53.470;9.832;2023-06-04T08:41:22;5.25;;;2.53;;
8100;SDS011;4093;53.470;9.832;2023-06-04T08:43:55;4.25;;;1.90;;
8100;SDS011;4093;53.470;9.832;2023-06-04T08:46:26;4.57;;;2.50;;
8100;SDS011;4093;53.470;9.832;2023-06-04T08:48:55;3.53;;;2.20;;
8100;SDS011;4093;53.470;9.832;2023-06-04T08:51:26;4.72;;;2.42;;
8100;SDS011;4093;53.470;9.832;2023-06-04T08:53:55;3.75;;;2.30;;
8100;SDS011;4093;53.470;9.832;2023-06-04T08:56:26;4.30;;;2.28;;
8100;SDS011;4093;53.470;9.832;2023-06-04T08:58:59;7.90;;;3.17;;
8100;SDS011;4093;53.470;9.832;2023-06-04T09:01:28;6.43;;;2.40;;
8100;SDS011;4093;53.470;9.832;2023-06-04T09:03:58;4.50;;;2.33;;
8100;SDS011;4093;53.470;9.832;2023-06-04T09:06:29;4.07;;;2.50;;
8100;SDS011;4093;53.470;9.832;2023-06-04T09:08:57;6.57;;;2.63;;
8100;SDS011;4093;53.470;9.832;2023-06-04T09:11:27;3.70;;;2.20;;
8100;SDS011;4093;53.470;9.832;2023-06-04T09:14:01;3.60;;;2.40;;
8100;SDS011;4093;53.470;9.832;2023-06-04T09:16:32;5.45;;;2.33;;
8100;SDS011;4093;53.470;9.832;2023-06-04T09:19:04;2.88;;;2.33;;
8100;SDS011;4093;53.470;9.832;2023-06-04T09:21:31;4.20;;;2.53;;
8100;SDS011;4093;53.470;9.832;2023-06-04T09:23:59;3.63;;;2.22;;
8100;SDS011;4093;53.470;9.832;2023-06-04T09:26:28;3.17;;;2.22;;
8100;SDS011;4093;53.470;9.832;2023-06-04T09:28:56;5.22;;;2.20;;
8100;SDS011;4093;53.470;9.832;2023-06-04T09:31:25;3.25;;;2.22;;
8100;SDS011;4093;53.470;9.832;2023-06-04T09:33:55;7.57;;;2.33;;
8100;SDS011;4093;53.470;9.832;2023-06-04T09:36:23;3.30;;;2.17;;
8100;SDS011;4093;53.470;9.832;2023-06-04T09:38:57;3.17;;;2.10;;
8100;SDS011;4093;53.470;9.832;2023-06-04T09:41:25;4.72;;;2.30;;
8100;SDS011;4093;53.470;9.832;2023-06-04T09:44:00;5.38;;;2.30;;
8100;SDS011;4093;53.470;9.832;2023-06-04T09:46:29;4.28;;;2.28;;
8100;SDS011;4093;53.470;9.832;2023-06-04T09:49:01;4.63;;;2.10;;
8100;SDS011;4093;53.470;9.832;2023-06-04T09:51:30;3.25;;;2.22;;
8100;SDS011;4093;53.470;9.832;2023-06-04T09:53:59;2.92;;;2.03;;
8100;SDS011;4093;53.470;9.832;2023-06-04T09:56:28;3.53;;;2.40;;
8100;SDS011;4093;53.470;9.832;2023-06-04T09:58:57;3.00;;;2.13;;
8100;SDS011;4093;53.470;9.832;2023-06-04T10:01:28;2.47;;;2.17;;
8100;SDS011;4093;53.470;9.832;2023-06-04T10:03:57;3.45;;;2.42;;
8100;SDS011;4093;53.470;9.832;2023-06-04T10:06:29;4.85;;;2.33;;
8100;SDS011;4093;53.470;9.832;2023-06-04T10:09:03;2.15;;;1.95;;
8100;SDS011;4093;53.470;9.832;2023-06-04T10:11:34;5.18;;;2.25;;
8100;SDS011;4093;53.470;9.832;2023-06-04T10:14:06;3.58;;;2.00;;
8100;SDS011;4093;53.470;9.832;2023-06-04T10:16:38;3.22;;;1.88;;
8100;SDS011;4093;53.470;9.832;2023-06-04T10:19:07;3.45;;;2.17;;
8100;SDS011;4093;53.470;9.832;2023-06-04T10:21:35;4.22;;;2.17;;
8100;SDS011;4093;53.470;9.832;2023-06-04T10:24:04;4.00;;;2.38;;
8100;SDS011;4093;53.470;9.832;2023-06-04T10:26:32;2.58;;;2.15;;
8100;SDS011;4093;53.470;9.832;2023-06-04T10:29:01;5.45;;;2.20;;
8100;SDS011;4093;53.470;9.832;2023-06-04T10:31:31;3.40;;;2.05;;
8100;SDS011;4093;53.470;9.832;2023-06-04T10:34:00;2.97;;;2.25;;
8100;SDS011;4093;53.470;9.832;2023-06-04T10:36:27;5.55;;;2.17;;
8100;SDS011;4093;53.470;9.832;2023-06-04T10:38:56;4.60;;;2.05;;
8100;SDS011;4093;53.470;9.832;2023-06-04T10:41:24;2.17;;;1.80;;
8100;SDS011;4093;53.470;9.832;2023-06-04T10:44:01;2.55;;;2.20;;
8100;SDS011;4093;53.470;9.832;2023-06-04T10:46:38;5.00;;;1.95;;
8100;SDS011;4093;53.470;9.832;2023-06-04T10:49:08;2.67;;;2.15;;
8100;SDS011;4093;53.470;9.832;2023-06-04T10:51:37;2.75;;;1.83;;
8100;SDS011;4093;53.470;9.832;2023-06-04T10:54:05;2.10;;;1.88;;
8100;SDS011;4093;53.470;9.832;2023-06-04T10:56:33;4.28;;;1.77;;
8100;SDS011;4093;53.470;9.832;2023-06-04T10:59:12;2.25;;;2.05;;
8100;SDS011;4093;53.470;9.832;2023-06-04T11:01:42;2.83;;;2.10;;
8100;SDS011;4093;53.470;9.832;2023-06-04T11:04:20;2.40;;;1.90;;
8100;SDS011;4093;53.470;9.832;2023-06-04T11:06:59;3.13;;;2.05;;
8100;SDS011;4093;53.470;9.832;2023-06-04T11:09:29;3.90;;;2.10;;
8100;SDS011;4093;53.470;9.832;2023-06-04T11:11:59;3.35;;;1.90;;
8100;SDS011;4093;53.470;9.832;2023-06-04T11:14:28;3.30;;;1.77;;
8100;SDS011;4093;53.470;9.832;2023-06-04T11:16:57;3.22;;;2.35;;
8100;SDS011;4093;53.470;9.832;2023-06-04T11:19:30;5.95;;;2.10;;
8100;SDS011;4093;53.470;9.832;2023-06-04T11:22:03;4.97;;;1.90;;
8100;SDS011;4093;53.470;9.832;2023-06-04T11:24:31;2.72;;;2.15;;
8100;SDS011;4093;53.470;9.832;2023-06-04T11:27:00;2.55;;;1.63;;
8100;SDS011;4093;53.470;9.832;2023-06-04T11:29:43;4.13;;;2.25;;
8100;SDS011;4093;53.470;9.832;2023-06-04T11:32:20;4.93;;;2.58;;
8100;SDS011;4093;53.470;9.832;2023-06-04T11:34:48;2.95;;;1.92;;
8100;SDS011;4093;53.470;9.832;2023-06-04T11:37:16;2.92;;;2.20;;
8100;SDS011;4093;53.470;9.832;2023-06-04T11:39:44;2.95;;;2.00;;
8100;SDS011;4093;53.470;9.832;2023-06-04T11:42:11;3.53;;;1.98;;
8100;SDS011;4093;53.470;9.832;2023-06-04T11:44:40;3.28;;;2.22;;
8100;SDS011;4093;53.470;9.832;2023-06-04T11:47:12;3.28;;;2.00;;
8100;SDS011;4093;53.470;9.832;2023-06-04T11:49:40;5.10;;;1.80;;
8100;SDS011;4093;53.470;9.832;2023-06-04T11:52:09;6.93;;;2.47;;
8100;SDS011;4093;53.470;9.832;2023-06-04T11:54:38;2.47;;;2.28;;
8100;SDS011;4093;53.470;9.832;2023-06-04T11:57:07;3.33;;;2.20;;
8100;SDS011;4093;53.470;9.832;2023-06-04T11:59:35;2.95;;;1.90;;
8100;SDS011;4093;53.470;9.832;2023-06-04T12:02:03;3.65;;;2.03;;
8100;SDS011;4093;53.470;9.832;2023-06-04T12:04:32;2.28;;;1.98;;
8100;SDS011;4093;53.470;9.832;2023-06-04T12:07:00;2.75;;;2.08;;
8100;SDS011;4093;53.470;9.832;2023-06-04T12:09:31;3.53;;;2.15;;
8100;SDS011;4093;53.470;9.832;2023-06-04T12:12:01;1.92;;;1.70;;
8100;SDS011;4093;53.470;9.832;2023-06-04T12:14:30;2.83;;;1.73;;
8100;SDS011;4093;53.470;9.832;2023-06-04T12:16:58;2.03;;;1.80;;
8100;SDS011;4093;53.470;9.832;2023-06-04T12:19:27;1.98;;;1.83;;
8100;SDS011;4093;53.470;9.832;2023-06-04T12:22:00;2.63;;;2.13;;
8100;SDS011;4093;53.470;9.832;2023-06-04T12:24:29;4.45;;;1.98;;
8100;SDS011;4093;53.470;9.832;2023-06-04T12:27:01;4.70;;;1.98;;
8100;SDS011;4093;53.470;9.832;2023-06-04T12:29:30;1.67;;;1.58;;
8100;SDS011;4093;53.470;9.832;2023-06-04T12:32:01;2.70;;;1.90;;
8100;SDS011;4093;53.470;9.832;2023-06-04T12:34:31;2.08;;;1.70;;
8100;SDS011;4093;53.470;9.832;2023-06-04T12:37:00;2.88;;;2.08;;
8100;SDS011;4093;53.470;9.832;2023-06-04T12:39:29;2.85;;;1.70;;
8100;SDS011;4093;53.470;9.832;2023-06-04T12:41:57;3.80;;;2.28;;
8100;SDS011;4093;53.470;9.832;2023-06-04T12:44:25;2.95;;;1.85;;
8100;SDS011;4093;53.470;9.832;2023-06-04T12:46:52;2.42;;;1.85;;
8100;SDS011;4093;53.470;9.832;2023-06-04T12:49:20;3.03;;;2.03;;
8100;SDS011;4093;53.470;9.832;2023-06-04T12:51:48;2.33;;;2.05;;
8100;SDS011;4093;53.470;9.832;2023-06-04T12:54:17;6.18;;;2.10;;
8100;SDS011;4093;53.470;9.832;2023-06-04T12:56:45;3.15;;;1.80;;
8100;SDS011;4093;53.470;9.832;2023-06-04T12:59:13;3.50;;;1.77;;
8100;SDS011;4093;53.470;9.832;2023-06-04T13:01:40;3.40;;;1.90;;
8100;SDS011;4093;53.470;9.832;2023-06-04T13:04:08;2.97;;;1.98;;
8100;SDS011;4093;53.470;9.832;2023-06-04T13:06:36;2.78;;;1.98;;
8100;SDS011;4093;53.470;9.832;2023-06-04T13:09:05;4.22;;;2.25;;
8100;SDS011;4093;53.470;9.832;2023-06-04T13:11:38;5.05;;;2.00;;
8100;SDS011;4093;53.470;9.832;2023-06-04T13:14:06;4.65;;;2.10;;
8100;SDS011;4093;53.470;9.832;2023-06-04T13:16:35;2.88;;;2.10;;
8100;SDS011;4093;53.470;9.832;2023-06-04T13:19:03;3.67;;;2.00;;
8100;SDS011;4093;53.470;9.832;2023-06-04T13:21:31;2.30;;;2.00;;
8100;SDS011;4093;53.470;9.832;2023-06-04T13:23:59;2.60;;;1.80;;
8100;SDS011;4093;53.470;9.832;2023-06-04T13:26:26;2.78;;;2.45;;
8100;SDS011;4093;53.470;9.832;2023-06-04T13:28:56;4.82;;;2.03;;
8100;SDS011;4093;53.470;9.832;2023-06-04T13:31:23;3.45;;;2.10;;
8100;SDS011;4093;53.470;9.832;2023-06-04T13:33:51;3.72;;;2.10;;
8100;SDS011;4093;53.470;9.832;2023-06-04T13:36:19;2.10;;;1.90;;
8100;SDS011;4093;53.470;9.832;2023-06-04T13:38:47;2.58;;;2.10;;
8100;SDS011;4093;53.470;9.832;2023-06-04T13:41:15;4.13;;;2.13;;
8100;SDS011;4093;53.470;9.832;2023-06-04T13:43:42;4.18;;;2.22;;
8100;SDS011;4093;53.470;9.832;2023-06-04T13:46:12;3.05;;;2.38;;
8100;SDS011;4093;53.470;9.832;2023-06-04T13:48:39;4.88;;;2.45;;
8100;SDS011;4093;53.470;9.832;2023-06-04T13:51:07;3.28;;;2.28;;
8100;SDS011;4093;53.470;9.832;2023-06-04T13:53:35;4.35;;;2.55;;
8100;SDS011;4093;53.470;9.832;2023-06-04T13:56:03;2.58;;;2.30;;
8100;SDS011;4093;53.470;9.832;2023-06-04T13:58:31;2.70;;;2.50;;
8100;SDS011;4093;53.470;9.832;2023-06-04T14:00:58;2.85;;;1.95;;
8100;SDS011;4093;53.470;9.832;2023-06-04T14:03:27;5.57;;;2.50;;
8100;SDS011;4093;53.470;9.832;2023-06-04T14:05:55;4.35;;;2.28;;
8100;SDS011;4093;53.470;9.832;2023-06-04T14:08:23;2.30;;;2.10;;
8100;SDS011;4093;53.470;9.832;2023-06-04T14:10:51;2.80;;;2.03;;
8100;SDS011;4093;53.470;9.832;2023-06-04T14:13:21;3.25;;;2.08;;
8100;SDS011;4093;53.470;9.832;2023-06-04T14:15:48;3.00;;;2.40;;
8100;SDS011;4093;53.470;9.832;2023-06-04T14:18:17;2.65;;;2.05;;
8100;SDS011;4093;53.470;9.832;2023-06-04T14:20:46;5.15;;;2.70;;
8100;SDS011;4093;53.470;9.832;2023-06-04T14:23:14;2.78;;;2.50;;
8100;SDS011;4093;53.470;9.832;2023-06-04T14:25:42;3.50;;;2.10;;
8100;SDS011;4093;53.470;9.832;2023-06-04T14:28:10;2.90;;;2.30;;
8100;SDS011;4093;53.470;9.832;2023-06-04T14:30:38;3.88;;;2.28;;
8100;SDS011;4093;53.470;9.832;2023-06-04T14:33:06;3.35;;;2.20;;
8100;SDS011;4093;53.470;9.832;2023-06-04T14:35:33;4.22;;;2.30;;
8100;SDS011;4093;53.470;9.832;2023-06-04T14:38:03;6.38;;;2.58;;
8100;SDS011;4093;53.470;9.832;2023-06-04T14:40:30;4.72;;;2.60;;
8100;SDS011;4093;53.470;9.832;2023-06-04T14:43:01;5.05;;;2.38;;
8100;SDS011;4093;53.470;9.832;2023-06-04T14:45:29;4.90;;;2.20;;
8100;SDS011;4093;53.470;9.832;2023-06-04T14:47:57;3.80;;;2.33;;
8100;SDS011;4093;53.470;9.832;2023-06-04T14:50:39;6.38;;;2.20;;
8100;SDS011;4093;53.470;9.832;2023-06-04T14:53:08;4.72;;;2.40;;
8100;SDS011;4093;53.470;9.832;2023-06-04T14:55:36;4.50;;;2.20;;
8100;SDS011;4093;53.470;9.832;2023-06-04T14:58:04;3.80;;;2.08;;
8100;SDS011;4093;53.470;9.832;2023-06-04T15:00:32;3.72;;;2.58;;
8100;SDS011;4093;53.470;9.832;2023-06-04T15:03:00;3.40;;;2.10;;
8100;SDS011;4093;53.470;9.832;2023-06-04T15:05:30;4.03;;;2.75;;
8100;SDS011;4093;53.470;9.832;2023-06-04T15:07:59;2.78;;;2.47;;
8100;SDS011;4093;53.470;9.832;2023-06-04T15:10:28;7.20;;;2.20;;
8100;SDS011;4093;53.470;9.832;2023-06-04T15:12:56;3.50;;;2.33;;
8100;SDS011;4093;53.470;9.832;2023-06-04T15:15:25;4.65;;;2.30;;
8100;SDS011;4093;53.470;9.832;2023-06-04T15:17:53;6.32;;;2.83;;
8100;SDS011;4093;53.470;9.832;2023-06-04T15:20:21;4.60;;;2.60;;
8100;SDS011;4093;53.470;9.832;2023-06-04T15:22:51;16.13;;;12.02;;
8100;SDS011;4093;53.470;9.832;2023-06-04T15:25:18;14.07;;;9.32;;
8100;SDS011;4093;53.470;9.832;2023-06-04T15:27:48;3.22;;;2.40;;